createdAt,value
2023-05-17T00:00:40.792Z,99878.66
2023-05-17T00:03:08.981Z,99875.28
2023-05-17T00:05:37.104Z,99879.56
2023-05-17T00:08:05.820Z,99885.66
2023-05-17T00:10:33.969Z,99889.94
2023-05-17T00:13:04.246Z,99879.69
2023-05-17T00:15:32.414Z,99893.41
2023-05-17T00:18:00.562Z,99875.47
2023-05-17T00:20:29.253Z,99879.88
2023-05-17T00:22:57.343Z,99874.97
2023-05-17T00:25:25.336Z,99878.44
2023-05-17T00:27:53.306Z,99876.78
2023-05-17T00:30:22.949Z,99871.88
2023-05-17T00:32:51.055Z,99876.25
2023-05-17T00:35:19.873Z,99876.34
2023-05-17T00:37:48.157Z,99877.38
2023-05-17T00:40:16.768Z,99874.91
2023-05-17T00:42:45.549Z,99879.22
2023-05-17T00:45:13.660Z,99879.41
2023-05-17T00:47:43.639Z,99882.88
2023-05-17T00:50:12.811Z,99885.56
2023-05-17T00:52:41.129Z,99884.81
2023-05-17T00:55:09.793Z,99876.31
2023-05-17T00:57:38.057Z,99885.72
2023-05-17T01:00:08.762Z,99894.25
2023-05-17T01:02:37.160Z,99889.13
2023-05-17T01:05:07.859Z,99891.69
2023-05-17T01:07:36.806Z,99890.84
2023-05-17T01:10:05.517Z,99892.69
2023-05-17T01:12:50.673Z,99890.22
2023-05-17T01:15:24.936Z,99894.50
2023-05-17T01:18:04.866Z,99899.63
2023-05-17T01:20:39.008Z,99899.72
2023-05-17T01:23:32.148Z,99908.31
2023-05-17T01:26:09.447Z,99907.53
2023-05-17T01:28:40.535Z,99897.38
2023-05-17T01:31:09.870Z,99905.16
2023-05-17T01:33:39.580Z,99912.00
2023-05-17T01:36:10.058Z,99909.44
2023-05-17T01:38:38.075Z,99923.19
2023-05-17T01:41:19.216Z,99916.41
2023-05-17T01:43:56.449Z,99919.88
2023-05-17T01:46:29.805Z,99925.00
2023-05-17T01:49:08.592Z,99928.47
2023-05-17T01:51:46.249Z,99937.09
2023-05-17T01:54:16.433Z,99932.97
2023-05-17T01:56:50.052Z,99928.66
2023-05-17T01:59:25.441Z,99936.44
2023-05-17T02:01:57.011Z,99937.44
2023-05-17T02:04:25.132Z,99940.91
2023-05-17T02:06:54.121Z,99936.72
2023-05-17T02:09:22.804Z,99940.28
2023-05-17T02:11:50.960Z,99944.56
2023-05-17T02:14:20.362Z,99947.25
2023-05-17T02:16:48.632Z,99941.31
2023-05-17T02:19:17.262Z,99941.31
2023-05-17T02:21:45.380Z,99943.13
2023-05-17T02:24:13.432Z,99940.66
2023-05-17T02:26:43.225Z,99935.53
2023-05-17T02:29:11.918Z,99934.81
2023-05-17T02:31:41.460Z,99939.09
2023-05-17T02:34:12.454Z,99934.03
2023-05-17T02:36:41.000Z,99942.72
2023-05-17T02:39:09.051Z,99943.72
2023-05-17T02:41:37.143Z,99943.03
2023-05-17T02:44:05.367Z,99945.56
2023-05-17T02:46:33.435Z,99952.41
2023-05-17T02:49:02.853Z,99954.16
2023-05-17T02:51:31.248Z,99954.25
2023-05-17T02:53:59.538Z,99959.47
2023-05-17T02:56:27.707Z,99959.47
2023-05-17T02:58:57.586Z,99960.28
2023-05-17T03:01:25.981Z,99961.19
2023-05-17T03:03:54.928Z,99950.16
2023-05-17T03:06:24.552Z,99958.72
2023-05-17T03:08:53.589Z,99957.06
2023-05-17T03:11:21.662Z,99962.19
2023-05-17T03:13:51.505Z,99959.72
2023-05-17T03:16:22.546Z,99962.38
2023-05-17T03:18:52.523Z,99969.25
2023-05-17T03:21:21.500Z,99959.91
2023-05-17T03:23:52.485Z,99964.31
2023-05-17T03:26:20.751Z,99967.78
2023-05-17T03:28:52.773Z,99964.38
2023-05-17T03:31:21.243Z,99962.75
2023-05-17T03:33:49.504Z,99972.25
2023-05-17T03:36:19.280Z,99976.56
2023-05-17T03:38:47.382Z,99973.16
2023-05-17T03:41:17.128Z,99981.66
2023-05-17T03:43:45.634Z,99976.66
2023-05-17T03:46:15.933Z,99979.28
2023-05-17T03:48:44.062Z,99980.31
2023-05-17T03:51:13.517Z,99981.19
2023-05-17T03:53:43.413Z,99986.41
2023-05-17T03:56:12.158Z,99983.84
2023-05-17T03:58:42.279Z,99991.53
2023-05-17T04:01:11.912Z,100000.03
2023-05-17T04:03:40.141Z,99996.66
2023-05-17T04:06:10.090Z,99991.63
2023-05-17T04:08:39.984Z,99993.34
2023-05-17T04:11:12.948Z,99994.25
2023-05-17T04:13:43.655Z,100001.09
2023-05-17T04:16:12.159Z,100000.28
2023-05-17T04:18:42.664Z,100000.38
2023-05-17T04:21:10.828Z,100002.94
2023-05-17T04:23:40.288Z,100008.06
2023-05-17T04:26:08.750Z,100017.44
2023-05-17T04:28:39.981Z,100016.66
2023-05-17T04:31:09.762Z,100026.88
2023-05-17T04:33:39.051Z,100024.22
2023-05-17T04:36:09.307Z,100031.81
2023-05-17T04:38:39.899Z,100031.72
2023-05-17T04:41:10.273Z,100033.28
2023-05-17T04:43:40.241Z,100029.72
2023-05-17T04:46:15.140Z,100044.88
2023-05-17T04:48:45.469Z,100040.53
2023-05-17T04:51:13.917Z,100032.75
2023-05-17T04:53:42.106Z,100042.09
2023-05-17T04:56:16.298Z,100049.56
2023-05-17T04:58:44.609Z,100046.91
2023-05-17T05:01:15.584Z,100052.84
2023-05-17T05:03:44.035Z,100051.94
2023-05-17T05:06:13.640Z,100058.63
2023-05-17T05:08:42.325Z,100056.81
2023-05-17T05:11:12.805Z,100066.13
2023-05-17T05:13:41.713Z,100067.69
2023-05-17T05:16:10.049Z,100071.00
2023-05-17T05:18:40.460Z,100070.06
2023-05-17T05:21:08.716Z,100075.09
2023-05-17T05:23:36.840Z,100082.59
2023-05-17T05:26:06.008Z,100084.16
2023-05-17T05:28:34.101Z,100085.84
2023-05-17T05:31:02.489Z,100087.47
2023-05-17T05:33:37.572Z,100086.47
2023-05-17T05:36:07.933Z,100084.66
2023-05-17T05:38:36.884Z,100093.91
2023-05-17T05:41:06.234Z,100092.91
2023-05-17T05:43:36.043Z,100091.06
2023-05-17T05:46:04.373Z,100094.38
2023-05-17T05:48:32.629Z,100091.72
2023-05-17T05:51:00.872Z,100089.88
2023-05-17T05:53:30.400Z,100090.72
2023-05-17T05:55:58.456Z,100099.13
2023-05-17T05:58:26.973Z,100095.56
2023-05-17T06:00:55.589Z,100097.94
2023-05-17T06:03:23.656Z,100105.50
2023-05-17T06:05:51.950Z,100102.03
2023-05-17T06:08:21.181Z,100112.09
2023-05-17T06:10:50.961Z,100117.97
2023-05-17T06:13:18.969Z,100112.66
2023-05-17T06:15:47.056Z,100118.53
2023-05-17T06:18:15.216Z,100119.25
2023-05-17T06:20:43.393Z,100121.66
2023-05-17T06:23:11.532Z,100124.94
2023-05-17T06:25:41.071Z,100128.22
2023-05-17T06:28:10.454Z,100123.72
2023-05-17T06:30:38.505Z,100121.06
2023-05-17T06:33:06.741Z,100132.06
2023-05-17T06:35:51.499Z,100132.72
2023-05-17T06:38:23.423Z,100130.88
2023-05-17T06:40:53.764Z,100143.50
2023-05-17T06:43:23.307Z,100144.25
2023-05-17T06:45:51.528Z,100149.19
2023-05-17T06:48:19.660Z,100149.81
2023-05-17T06:50:47.829Z,100145.41
2023-05-17T06:53:15.989Z,100147.88
2023-05-17T06:55:44.061Z,100145.16
2023-05-17T06:58:12.152Z,100148.34
2023-05-17T07:00:41.534Z,100146.53
2023-05-17T07:03:10.007Z,100142.09
2023-05-17T07:05:38.179Z,100144.59
2023-05-17T07:08:06.664Z,100148.69
2023-05-17T07:10:34.768Z,100146.97
2023-05-17T07:13:02.752Z,100154.56
2023-05-17T07:15:31.092Z,100151.91
2023-05-17T07:18:00.750Z,100147.59
2023-05-17T07:20:29.166Z,100162.81
2023-05-17T07:22:57.249Z,100158.41
2023-05-17T07:25:25.375Z,100154.00
2023-05-17T07:27:53.573Z,100161.59
2023-05-17T07:30:21.669Z,100164.88
2023-05-17T07:32:49.781Z,100169.03
2023-05-17T07:35:21.072Z,100152.63
2023-05-17T07:37:49.890Z,100153.28
2023-05-17T07:40:18.258Z,100158.31
2023-05-17T07:42:46.229Z,100154.75
2023-05-17T07:45:14.544Z,100158.03
2023-05-17T07:47:42.752Z,100156.19
2023-05-17T07:50:12.337Z,100157.84
2023-05-17T07:52:41.803Z,100161.97
2023-05-17T07:55:11.146Z,100161.88
2023-05-17T07:57:39.183Z,100166.06
2023-05-17T08:00:12.508Z,100169.38
2023-05-17T08:02:41.347Z,100165.06
2023-05-17T08:05:10.582Z,100165.06
2023-05-17T08:07:38.792Z,100159.75
2023-05-17T08:10:09.343Z,100160.47
2023-05-17T08:12:37.494Z,100169.00
2023-05-17T08:15:07.817Z,100165.31
2023-05-17T08:17:35.982Z,100170.34
2023-05-17T08:20:04.800Z,100169.41
2023-05-17T08:22:32.963Z,100175.19
2023-05-17T08:25:00.972Z,100168.22
2023-05-17T08:27:31.022Z,100174.06
2023-05-17T08:29:59.735Z,100170.50
2023-05-17T08:32:28.129Z,100167.84
2023-05-17T08:34:56.951Z,100167.72
2023-05-17T08:37:25.013Z,100170.19
2023-05-17T08:39:53.161Z,100164.06
2023-05-17T08:42:25.192Z,100167.47
2023-05-17T08:44:55.249Z,100160.47
2023-05-17T08:47:29.629Z,100164.47
2023-05-17T08:50:00.332Z,100160.28
2023-05-17T08:52:31.129Z,100155.97
2023-05-17T08:55:00.915Z,100162.75
2023-05-17T08:57:32.179Z,100166.03
2023-05-17T09:00:04.077Z,100161.53
2023-05-17T09:02:33.096Z,100152.41
2023-05-17T09:05:01.947Z,100161.19
2023-05-17T09:07:30.305Z,100157.91
2023-05-17T09:09:58.565Z,100154.06
2023-05-17T09:12:27.014Z,100151.19
2023-05-17T09:14:55.096Z,100145.00
2023-05-17T09:17:24.504Z,100151.81
2023-05-17T09:19:52.911Z,100148.44
2023-05-17T09:22:21.415Z,100152.72
2023-05-17T09:24:51.172Z,100145.97
2023-05-17T09:27:19.864Z,100156.34
2023-05-17T09:29:48.329Z,100150.56
2023-05-17T09:32:20.502Z,100154.06
2023-05-17T09:34:51.089Z,100150.75
2023-05-17T09:37:20.784Z,100159.38
2023-05-17T09:39:49.554Z,100151.03
2023-05-17T09:42:18.876Z,100152.88
2023-05-17T09:44:48.963Z,100149.59
2023-05-17T09:47:28.379Z,100154.09
2023-05-17T09:50:00.517Z,100148.25
2023-05-17T09:52:31.588Z,100160.34
2023-05-17T09:55:01.541Z,100160.34
2023-05-17T09:57:37.940Z,100162.91
2023-05-17T10:00:11.497Z,100163.75
2023-05-17T10:02:42.034Z,100159.53
2023-05-17T10:05:14.702Z,100166.31
2023-05-17T10:07:43.345Z,100163.84
2023-05-17T10:10:13.741Z,100174.13
2023-05-17T10:12:42.612Z,100165.69
2023-05-17T10:15:16.099Z,100163.13
2023-05-17T10:17:45.619Z,100161.56
2023-05-17T10:20:17.881Z,100164.22
2023-05-17T10:22:46.529Z,100160.00
2023-05-17T10:25:15.296Z,100166.09
2023-05-17T10:27:43.539Z,100160.13
2023-05-17T10:30:14.547Z,100167.00
2023-05-17T10:32:43.759Z,100162.78
2023-05-17T10:35:16.581Z,100161.03
2023-05-17T10:37:44.813Z,100165.25
2023-05-17T10:40:14.267Z,100160.97
2023-05-17T10:42:46.971Z,100164.34
2023-05-17T10:45:15.243Z,100163.31
2023-05-17T10:47:45.960Z,100156.44
2023-05-17T10:50:17.019Z,100160.53
2023-05-17T10:52:49.448Z,100159.44
2023-05-17T10:55:22.523Z,100154.09
2023-05-17T10:58:16.946Z,100149.38
2023-05-17T11:00:47.873Z,100149.09
2023-05-17T11:03:18.399Z,100147.09
2023-05-17T11:06:24.673Z,100152.00
2023-05-17T11:09:10.177Z,100150.16
2023-05-17T11:11:38.247Z,100139.88
2023-05-17T11:14:08.424Z,100143.28
2023-05-17T11:16:38.455Z,100149.13
2023-05-17T11:19:11.965Z,100153.34
2023-05-17T11:21:48.650Z,100151.59
2023-05-17T11:24:26.733Z,100155.00
2023-05-17T11:26:56.593Z,100149.75
2023-05-17T11:29:30.486Z,100151.50
2023-05-17T11:31:58.572Z,100154.91
2023-05-17T11:34:28.303Z,100154.91
2023-05-17T11:36:58.030Z,100151.41
2023-05-17T11:39:26.979Z,100146.06
2023-05-17T11:41:56.796Z,100147.59
2023-05-17T11:44:26.880Z,100145.75
2023-05-17T11:47:03.286Z,100145.66
2023-05-17T11:49:36.350Z,100141.34
2023-05-17T11:52:07.380Z,100142.88
2023-05-17T11:54:36.450Z,100141.97
2023-05-17T11:57:05.696Z,100143.47
2023-05-17T11:59:43.041Z,100146.91
2023-05-17T12:02:11.390Z,100137.44
2023-05-17T12:04:40.210Z,100135.59
2023-05-17T12:07:12.196Z,100137.13
2023-05-17T12:09:40.982Z,100133.63
2023-05-17T12:12:09.610Z,100125.00
2023-05-17T12:14:38.232Z,100124.88
2023-05-17T12:17:10.118Z,100120.59
2023-05-17T12:19:38.424Z,100116.25
2023-05-17T12:22:09.030Z,100117.91
2023-05-17T12:24:43.026Z,100113.59
2023-05-17T12:27:11.530Z,100106.78
2023-05-17T12:29:40.203Z,100111.84
2023-05-17T12:32:10.220Z,100108.44
2023-05-17T12:34:38.620Z,100109.28
2023-05-17T12:37:10.281Z,100111.84
2023-05-17T12:39:38.797Z,100111.94
2023-05-17T12:42:10.023Z,100110.31
2023-05-17T12:44:38.073Z,100103.53
2023-05-17T12:47:06.471Z,100100.03
2023-05-17T12:49:40.283Z,100093.25
2023-05-17T12:52:08.893Z,100089.84
2023-05-17T12:54:37.087Z,100093.34
2023-05-17T12:57:16.031Z,100092.50
2023-05-17T12:59:49.231Z,100094.25
2023-05-17T13:02:18.280Z,100090.88
2023-05-17T13:04:46.792Z,100096.09
2023-05-17T13:07:23.734Z,100090.97
2023-05-17T13:09:52.360Z,100096.09
2023-05-17T13:12:25.548Z,100079.88
2023-05-17T13:14:55.008Z,100082.44
2023-05-17T13:17:27.634Z,100086.66
2023-05-17T13:19:57.519Z,100081.53
2023-05-17T13:22:26.267Z,100068.69
2023-05-17T13:24:55.061Z,100078.03
2023-05-17T13:27:24.506Z,100084.00
2023-05-17T13:29:52.623Z,100072.06
2023-05-17T13:32:22.338Z,100069.38
2023-05-17T13:34:50.537Z,100068.69
2023-05-17T13:37:18.606Z,100067.84
2023-05-17T13:39:46.666Z,100069.59
2023-05-17T13:42:15.005Z,100069.69
2023-05-17T13:44:44.383Z,100064.66
2023-05-17T13:47:12.444Z,100061.19
2023-05-17T13:49:41.056Z,100054.41
2023-05-17T13:52:09.466Z,100047.59
2023-05-17T13:54:38.311Z,100057.78
2023-05-17T13:57:07.865Z,100057.88
2023-05-17T13:59:36.186Z,100055.31
2023-05-17T14:02:05.776Z,100051.09
2023-05-17T14:04:34.888Z,100055.44
2023-05-17T14:07:03.378Z,100057.88
2023-05-17T14:09:34.182Z,100052.75
2023-05-17T14:12:02.555Z,100056.22
2023-05-17T14:14:31.597Z,100054.50
2023-05-17T14:17:01.233Z,100051.94
2023-05-17T14:19:30.911Z,100051.94
2023-05-17T14:21:59.081Z,100046.78
2023-05-17T14:24:27.160Z,100038.25
2023-05-17T14:26:55.162Z,100037.31
2023-05-17T14:29:23.206Z,100045.03
2023-05-17T14:31:51.814Z,100045.78
2023-05-17T14:34:20.033Z,100049.16
2023-05-17T14:36:50.838Z,100036.31
2023-05-17T14:39:18.855Z,100030.34
2023-05-17T14:41:46.923Z,100035.50
2023-05-17T14:44:15.215Z,100044.00
2023-05-17T14:46:43.235Z,100036.19
2023-05-17T14:49:11.337Z,100033.63
2023-05-17T14:51:39.389Z,100034.34
2023-05-17T14:54:08.763Z,100030.13
2023-05-17T14:56:36.774Z,100035.28
2023-05-17T14:59:04.796Z,100031.78
2023-05-17T15:01:32.908Z,100031.78
2023-05-17T15:04:01.108Z,100033.50
2023-05-17T15:06:30.161Z,100032.59
2023-05-17T15:08:59.241Z,100036.94
2023-05-17T15:11:29.307Z,100030.94
2023-05-17T15:13:57.530Z,100031.78
2023-05-17T15:16:25.684Z,100032.59
2023-05-17T15:18:55.513Z,100031.78
2023-05-17T15:21:25.599Z,100029.22
2023-05-17T15:23:53.741Z,100037.72
2023-05-17T15:26:22.296Z,100035.28
2023-05-17T15:28:51.699Z,100033.63
2023-05-17T15:31:19.752Z,100036.31
2023-05-17T15:33:47.885Z,100030.34
2023-05-17T15:36:16.400Z,100030.34
2023-05-17T15:38:44.595Z,100030.34
2023-05-17T15:41:15.117Z,100026.84
2023-05-17T15:43:43.976Z,100025.22
2023-05-17T15:46:13.426Z,100027.78
2023-05-17T15:48:41.534Z,100034.66
2023-05-17T15:51:10.067Z,100026.13
2023-05-17T15:53:38.360Z,100030.44
2023-05-17T15:56:07.654Z,100041.66
2023-05-17T15:58:35.905Z,100036.63
2023-05-17T16:01:05.499Z,100034.88
2023-05-17T16:03:35.345Z,100038.34
2023-05-17T16:06:04.227Z,100036.72
2023-05-17T16:08:32.915Z,100040.94
2023-05-17T16:11:02.489Z,100035.78
2023-05-17T16:13:30.944Z,100032.41
2023-05-17T16:15:59.679Z,100041.84
2023-05-17T16:18:32.858Z,100045.25
2023-05-17T16:21:05.281Z,100038.47
2023-05-17T16:23:33.603Z,100036.81
2023-05-17T16:26:01.647Z,100030.06
2023-05-17T16:28:31.668Z,100035.19
2023-05-17T16:30:59.763Z,100041.16
2023-05-17T16:33:27.876Z,100038.56
2023-05-17T16:35:56.085Z,100042.91
2023-05-17T16:38:26.132Z,100039.50
2023-05-17T16:40:54.177Z,100050.63
2023-05-17T16:43:24.103Z,100054.91
2023-05-17T16:45:52.968Z,100054.09
2023-05-17T16:48:21.134Z,100054.09
2023-05-17T16:50:49.575Z,100051.53
2023-05-17T16:53:17.674Z,100050.69
2023-05-17T16:55:47.099Z,100051.53
2023-05-17T16:58:15.138Z,100056.66
2023-05-17T17:00:45.105Z,100051.53
2023-05-17T17:03:13.166Z,100044.75
2023-05-17T17:05:42.260Z,100046.38
2023-05-17T17:08:14.640Z,100041.25
2023-05-17T17:10:42.725Z,100043.81
2023-05-17T17:13:12.078Z,100036.13
2023-05-17T17:15:41.075Z,100049.78
2023-05-17T17:18:09.145Z,100038.78
2023-05-17T17:20:37.280Z,100040.41
2023-05-17T17:23:05.410Z,100046.38
2023-05-17T17:25:33.656Z,100039.59
2023-05-17T17:28:01.670Z,100037.03
2023-05-17T17:30:31.570Z,100037.94
2023-05-17T17:32:59.884Z,100040.53
2023-05-17T17:35:27.981Z,100044.97
2023-05-17T17:37:56.316Z,100043.31
2023-05-17T17:40:24.420Z,100038.16
2023-05-17T17:42:52.403Z,100042.50
2023-05-17T17:45:20.564Z,100048.44
2023-05-17T17:47:49.937Z,100043.31
2023-05-17T17:50:18.153Z,100049.38
2023-05-17T17:52:46.315Z,100052.84
2023-05-17T17:55:15.064Z,100048.66
2023-05-17T17:57:43.218Z,100052.97
2023-05-17T18:00:15.887Z,100051.34
2023-05-17T18:02:46.795Z,100058.19
2023-05-17T18:05:16.834Z,100059.97
2023-05-17T18:07:44.953Z,100057.50
2023-05-17T18:10:13.065Z,100060.97
2023-05-17T18:12:41.172Z,100064.47
2023-05-17T18:15:10.883Z,100057.69
2023-05-17T18:17:39.434Z,100062.94
2023-05-17T18:20:09.218Z,100063.78
2023-05-17T18:22:38.643Z,100069.81
2023-05-17T18:25:07.598Z,100071.66
2023-05-17T18:27:36.723Z,100064.91
2023-05-17T18:30:05.637Z,100059.03
2023-05-17T18:32:33.854Z,100074.44
2023-05-17T18:35:02.065Z,100071.13
2023-05-17T18:37:30.309Z,100064.34
2023-05-17T18:40:01.743Z,100067.03
2023-05-17T18:42:30.060Z,100062.00
2023-05-17T18:44:59.693Z,100069.78
2023-05-17T18:47:28.176Z,100069.97
2023-05-17T18:49:56.286Z,100066.72
2023-05-17T18:52:24.296Z,100064.22
2023-05-17T18:54:52.379Z,100063.50
2023-05-17T18:57:21.797Z,100069.56
2023-05-17T18:59:49.877Z,100068.84
2023-05-17T19:02:17.990Z,100074.16
2023-05-17T19:04:46.143Z,100076.03
2023-05-17T19:07:14.328Z,100071.00
2023-05-17T19:09:42.516Z,100079.72
2023-05-17T19:12:11.267Z,100083.31
2023-05-17T19:14:41.069Z,100080.84
2023-05-17T19:17:10.329Z,100092.94
2023-05-17T19:19:38.453Z,100088.03
2023-05-17T19:22:06.589Z,100090.69
2023-05-17T19:24:35.641Z,100093.34
2023-05-17T19:27:04.646Z,100090.91
2023-05-17T19:29:33.087Z,100093.56
2023-05-17T19:32:02.698Z,100091.06
2023-05-17T19:34:31.201Z,100095.72
2023-05-17T19:36:59.370Z,100100.09
2023-05-17T19:39:27.400Z,100109.56
2023-05-17T19:41:55.684Z,100100.31
2023-05-17T19:44:23.748Z,100106.44
2023-05-17T19:46:52.121Z,100113.41
2023-05-17T19:49:21.843Z,100122.13
2023-05-17T19:51:49.944Z,100122.97
2023-05-17T19:54:18.028Z,100125.72
2023-05-17T19:56:46.188Z,100129.22
2023-05-17T19:59:14.405Z,100126.66
2023-05-17T20:01:42.584Z,100122.41
2023-05-17T20:04:11.209Z,100126.75
2023-05-17T20:06:41.120Z,100130.22
2023-05-17T20:09:09.585Z,100131.22
2023-05-17T20:11:37.843Z,100128.88
2023-05-17T20:14:06.040Z,100129.78
2023-05-17T20:16:34.228Z,100124.84
2023-05-17T20:19:02.406Z,100131.00
2023-05-17T20:21:31.307Z,100125.13
2023-05-17T20:24:03.660Z,100126.97
2023-05-17T20:26:36.235Z,100130.56
2023-05-17T20:29:05.964Z,100139.25
2023-05-17T20:31:34.801Z,100139.34
2023-05-17T20:34:03.450Z,100138.63
2023-05-17T20:36:32.240Z,100142.13
2023-05-17T20:39:01.700Z,100143.94
2023-05-17T20:41:29.835Z,100141.47
2023-05-17T20:43:57.935Z,100139.00
2023-05-17T20:46:29.756Z,100142.47
2023-05-17T20:48:58.053Z,100140.09
2023-05-17T20:51:27.234Z,100143.56
2023-05-17T20:53:55.511Z,100140.28
2023-05-17T20:56:25.464Z,100142.09
2023-05-17T20:58:53.503Z,100144.84
2023-05-17T21:01:22.411Z,100144.97
2023-05-17T21:03:51.359Z,100152.72
2023-05-17T21:06:19.641Z,100156.22
2023-05-17T21:08:47.807Z,100152.09
2023-05-17T21:11:20.816Z,100158.22
2023-05-17T21:13:50.727Z,100152.34
2023-05-17T21:16:19.171Z,100158.44
2023-05-17T21:18:47.244Z,100151.66
2023-05-17T21:21:15.416Z,100155.13
2023-05-17T21:23:43.540Z,100164.66
2023-05-17T21:26:11.643Z,100169.84
2023-05-17T21:28:39.745Z,100172.50
2023-05-17T21:31:09.340Z,100159.78
2023-05-17T21:33:37.417Z,100165.81
2023-05-17T21:36:05.789Z,100172.69
2023-05-17T21:38:33.851Z,100163.34
2023-05-17T21:41:02.031Z,100168.47
2023-05-17T21:43:30.292Z,100164.28
2023-05-17T21:45:58.328Z,100166.00
2023-05-17T21:48:27.821Z,100161.78
2023-05-17T21:50:55.813Z,100162.72
2023-05-17T21:53:23.803Z,100159.31
2023-05-17T21:58:24.897Z,100159.41
2023-05-17T22:00:53.257Z,100156.06
2023-05-17T22:03:22.053Z,100161.97
2023-05-17T22:05:52.435Z,100156.16
2023-05-17T22:08:20.472Z,100154.50
2023-05-17T22:10:50.059Z,100156.22
2023-05-17T22:13:19.082Z,100156.31
2023-05-17T22:15:47.367Z,100158.06
2023-05-17T22:18:15.459Z,100155.59
2023-05-17T22:20:43.630Z,100154.75
2023-05-17T22:23:13.295Z,100152.28
2023-05-17T22:25:41.358Z,100160.06
2023-05-17T22:28:09.627Z,100160.97
2023-05-17T22:30:37.637Z,100163.53
2023-05-17T22:33:06.318Z,100166.19
2023-05-17T22:35:34.411Z,100171.31
2023-05-17T22:38:02.426Z,100156.03
2023-05-17T22:40:32.224Z,100163.72
2023-05-17T22:43:01.253Z,100167.19
2023-05-17T22:45:32.832Z,100161.25
2023-05-17T22:48:06.363Z,100165.56
2023-05-17T22:50:34.454Z,100159.59
2023-05-17T22:53:02.533Z,100167.38
2023-05-17T22:55:32.317Z,100167.38
2023-05-17T22:58:00.649Z,100164.81
2023-05-17T23:00:28.736Z,100164.91
2023-05-17T23:02:56.826Z,100164.09
2023-05-17T23:05:25.161Z,100178.72
2023-05-17T23:07:53.336Z,100176.25
2023-05-17T23:10:21.570Z,100172.03
2023-05-17T23:12:52.449Z,100163.63
2023-05-17T23:15:20.775Z,100168.75
2023-05-17T23:17:48.862Z,100172.13
2023-05-17T23:20:17.404Z,100164.44
2023-05-17T23:22:47.463Z,100174.69
2023-05-17T23:25:15.673Z,100171.22
2023-05-17T23:27:44.653Z,100166.91
2023-05-17T23:30:14.364Z,100166.91
2023-05-17T23:32:46.837Z,100162.63
2023-05-17T23:35:14.972Z,100167.66
2023-05-17T23:37:43.177Z,100170.38
2023-05-17T23:40:14.558Z,100171.22
2023-05-17T23:42:43.122Z,100166.91
2023-05-17T23:45:11.279Z,100163.53
2023-05-17T23:47:41.348Z,100164.34
2023-05-17T23:50:10.867Z,100160.13
2023-05-17T23:52:39.332Z,100161.88
2023-05-17T23:55:08.875Z,100160.22
2023-05-17T23:57:37.702Z,100161.06
